sensor_id;sensor_type;location;lat;lon;timestamp;pressure;altitude;pressure_sealevel;temperature;humidity
58821;BME280;70670;52.476;13.334;2024-01-15T00:01:18;98749.06;;;0.27;100.00
58821;BME280;70670;52.476;13.334;2024-01-15T00:03:57;98763.28;;;0.22;100.00
58821;BME280;70670;52.476;13.334;2024-01-15T00:06:23;98731.13;;;0.16;100.00
58821;BME280;70670;52.476;13.334;2024-01-15T00:08:48;98732.84;;;0.17;100.00
58821;BME280;70670;52.476;13.334;2024-01-15T00:11:14;98718.38;;;0.07;100.00
58821;BME280;70670;52.476;13.334;2024-01-15T00:13:39;98732.97;;;0.14;100.00
58821;BME280;70670;52.476;13.334;2024-01-15T00:16:05;98719.03;;;0.12;100.00
58821;BME280;70670;52.476;13.334;2024-01-15T00:18:31;98708.47;;;0.13;100.00
58821;BME280;70670;52.476;13.334;2024-01-15T00:20:56;98718.56;;;0.22;100.00
58821;BME280;70670;52.476;13.334;2024-01-15T00:23:22;98703.91;;;0.17;100.00
58821;BME280;70670;52.476;13.334;2024-01-15T00:25:50;98710.97;;;0.16;100.00
58821;BME280;70670;52.476;13.334;2024-01-15T00:28:15;98704.41;;;0.25;100.00
58821;BME280;70670;52.476;13.334;2024-01-15T00:30:41;98700.84;;;0.26;100.00
58821;BME280;70670;52.476;13.334;2024-01-15T00:33:07;98637.56;;;-0.09;100.00
58821;BME280;70670;52.476;13.334;2024-01-15T00:35:33;98677.31;;;0.23;100.00
58821;BME280;70670;52.476;13.334;2024-01-15T00:37:58;98681.69;;;0.24;100.00
58821;BME280;70670;52.476;13.334;2024-01-15T00:40:24;98661.31;;;0.28;100.00
58821;BME280;70670;52.476;13.334;2024-01-15T00:42:51;98665.47;;;0.33;99.89
58821;BME280;70670;52.476;13.334;2024-01-15T00:45:16;98606.00;;;-0.09;99.16
58821;BME280;70670;52.476;13.334;2024-01-15T00:47:42;98664.38;;;0.37;98.26
58821;BME280;70670;52.476;13.334;2024-01-15T00:50:08;98667.16;;;0.34;99.54
58821;BME280;70670;52.476;13.334;2024-01-15T00:52:33;98646.69;;;0.22;98.66
58821;BME280;70670;52.476;13.334;2024-01-15T00:54:59;98648.09;;;0.29;99.01
58821;BME280;70670;52.476;13.334;2024-01-15T00:57:25;98649.22;;;0.42;97.64
58821;BME280;70670;52.476;13.334;2024-01-15T00:59:51;98543.47;;;-0.21;97.61
58821;BME280;70670;52.476;13.334;2024-01-15T01:02:16;98649.53;;;0.36;98.45
58821;BME280;70670;52.476;13.334;2024-01-15T01:04:42;98637.44;;;0.32;99.24
58821;BME280;70670;52.476;13.334;2024-01-15T01:07:07;98658.31;;;0.35;99.15
58821;BME280;70670;52.476;13.334;2024-01-15T01:09:33;98640.22;;;0.29;98.44
58821;BME280;70670;52.476;13.334;2024-01-15T01:11:59;98646.94;;;0.35;98.74
58821;BME280;70670;52.476;13.334;2024-01-15T01:14:24;98630.13;;;0.20;100.00
58821;BME280;70670;52.476;13.334;2024-01-15T01:16:50;98600.91;;;-0.12;100.00
58821;BME280;70670;52.476;13.334;2024-01-15T01:19:16;98586.56;;;-0.23;100.00
58821;BME280;70670;52.476;13.334;2024-01-15T01:21:41;98647.13;;;0.13;100.00
58821;BME280;70670;52.476;13.334;2024-01-15T01:24:07;98663.16;;;0.07;100.00
58821;BME280;70670;52.476;13.334;2024-01-15T01:26:33;98645.38;;;0.12;100.00
58821;BME280;70670;52.476;13.334;2024-01-15T01:28:58;98610.72;;;-0.15;100.00
58821;BME280;70670;52.476;13.334;2024-01-15T01:31:24;98625.91;;;-0.03;100.00
58821;BME280;70670;52.476;13.334;2024-01-15T01:33:50;98653.69;;;0.03;100.00
58821;BME280;70670;52.476;13.334;2024-01-15T01:36:15;98656.53;;;-0.02;100.00
58821;BME280;70670;52.476;13.334;2024-01-15T01:38:41;98607.91;;;-0.31;100.00
58821;BME280;70670;52.476;13.334;2024-01-15T01:41:07;98648.22;;;-0.12;100.00
58821;BME280;70670;52.476;13.334;2024-01-15T01:43:33;98647.69;;;-0.20;100.00
58821;BME280;70670;52.476;13.334;2024-01-15T01:46:00;98653.44;;;-0.31;100.00
58821;BME280;70670;52.476;13.334;2024-01-15T01:48:26;98653.44;;;-0.31;100.00
58821;BME280;70670;52.476;13.334;2024-01-15T01:50:54;98644.50;;;-0.27;100.00
58821;BME280;70670;52.476;13.334;2024-01-15T01:53:21;98660.53;;;-0.33;100.00
58821;BME280;70670;52.476;13.334;2024-01-15T01:55:48;98598.69;;;-0.60;100.00
58821;BME280;70670;52.476;13.334;2024-01-15T01:58:15;98635.78;;;-0.27;100.00
58821;BME280;70670;52.476;13.334;2024-01-15T02:00:40;98623.31;;;-0.42;100.00
58821;BME280;70670;52.476;13.334;2024-01-15T02:03:06;98591.59;;;-0.58;100.00
58821;BME280;70670;52.476;13.334;2024-01-15T02:05:31;98573.41;;;-0.63;100.00
58821;BME280;70670;52.476;13.334;2024-01-15T02:07:58;98628.09;;;-0.32;100.00
58821;BME280;70670;52.476;13.334;2024-01-15T02:10:23;98641.78;;;-0.25;100.00
58821;BME280;70670;52.476;13.334;2024-01-15T02:12:49;98581.66;;;-0.52;100.00
58821;BME280;70670;52.476;13.334;2024-01-15T02:15:14;98634.03;;;-0.28;100.00
58821;BME280;70670;52.476;13.334;2024-01-15T02:17:59;98632.41;;;-0.31;100.00
58821;BME280;70670;52.476;13.334;2024-01-15T02:20:25;98620.78;;;-0.25;100.00
58821;BME280;70670;52.476;13.334;2024-01-15T02:22:51;98567.03;;;-0.57;100.00
58821;BME280;70670;52.476;13.334;2024-01-15T02:25:18;98623.25;;;-0.22;100.00
58821;BME280;70670;52.476;13.334;2024-01-15T02:27:44;98622.19;;;-0.18;100.00
58821;BME280;70670;52.476;13.334;2024-01-15T02:30:11;98648.63;;;-0.21;100.00
58821;BME280;70670;52.476;13.334;2024-01-15T02:32:38;98613.81;;;-0.26;100.00
58821;BME280;70670;52.476;13.334;2024-01-15T02:35:03;98620.38;;;-0.16;100.00
58821;BME280;70670;52.476;13.334;2024-01-15T02:37:29;98618.78;;;-0.20;100.00
58821;BME280;70670;52.476;13.334;2024-01-15T02:39:55;98584.53;;;-0.37;100.00
58821;BME280;70670;52.476;13.334;2024-01-15T02:42:20;98592.91;;;-0.29;100.00
58821;BME280;70670;52.476;13.334;2024-01-15T02:44:46;98617.16;;;-0.22;100.00
58821;BME280;70670;52.476;13.334;2024-01-15T02:47:11;98634.56;;;-0.20;100.00
58821;BME280;70670;52.476;13.334;2024-01-15T02:49:37;98520.00;;;-0.82;100.00
58821;BME280;70670;52.476;13.334;2024-01-15T02:52:03;98615.38;;;-0.22;100.00
58821;BME280;70670;52.476;13.334;2024-01-15T02:54:28;98600.19;;;-0.15;100.00
58821;BME280;70670;52.476;13.334;2024-01-15T02:56:54;98538.03;;;-0.56;100.00
58821;BME280;70670;52.476;13.334;2024-01-15T02:59:20;98594.63;;;-0.28;100.00
58821;BME280;70670;52.476;13.334;2024-01-15T03:01:45;98600.59;;;-0.25;100.00
58821;BME280;70670;52.476;13.334;2024-01-15T03:04:11;98604.22;;;-0.27;100.00
58821;BME280;70670;52.476;13.334;2024-01-15T03:06:37;98607.50;;;-0.22;100.00
58821;BME280;70670;52.476;13.334;2024-01-15T03:09:02;98609.28;;;-0.22;100.00
58821;BME280;70670;52.476;13.334;2024-01-15T03:11:29;98607.50;;;-0.22;100.00
58821;BME280;70670;52.476;13.334;2024-01-15T03:13:54;98581.41;;;-0.27;100.00
58821;BME280;70670;52.476;13.334;2024-01-15T03:16:20;98591.50;;;-0.17;99.32
58821;BME280;70670;52.476;13.334;2024-01-15T03:18:46;98609.13;;;-0.19;99.31
58821;BME280;70670;52.476;13.334;2024-01-15T03:21:11;98542.78;;;-0.43;98.82
58821;BME280;70670;52.476;13.334;2024-01-15T03:23:37;98577.50;;;-0.18;97.46
58821;BME280;70670;52.476;13.334;2024-01-15T03:26:03;98565.41;;;-0.41;96.97
58821;BME280;70670;52.476;13.334;2024-01-15T03:28:29;98580.72;;;-0.11;97.50
58821;BME280;70670;52.476;13.334;2024-01-15T03:30:56;98517.03;;;-0.56;97.46
58821;BME280;70670;52.476;13.334;2024-01-15T03:33:21;98583.56;;;-0.16;98.32
58821;BME280;70670;52.476;13.334;2024-01-15T03:35:47;98581.94;;;-0.18;98.85
58821;BME280;70670;52.476;13.334;2024-01-15T03:38:12;98590.66;;;-0.18;97.99
58821;BME280;70670;52.476;13.334;2024-01-15T03:40:38;98574.63;;;-0.12;96.57
58821;BME280;70670;52.476;13.334;2024-01-15T03:43:03;98577.66;;;-0.21;97.49
58821;BME280;70670;52.476;13.334;2024-01-15T03:45:29;98568.66;;;-0.15;97.03
58821;BME280;70670;52.476;13.334;2024-01-15T03:47:55;98567.94;;;-0.19;96.74
58821;BME280;70670;52.476;13.334;2024-01-15T03:50:20;98562.69;;;-0.19;96.90
58821;BME280;70670;52.476;13.334;2024-01-15T03:52:46;98563.94;;;-0.09;96.26
58821;BME280;70670;52.476;13.334;2024-01-15T03:55:12;98504.00;;;-0.38;95.97
58821;BME280;70670;52.476;13.334;2024-01-15T03:57:37;98559.97;;;0.02;94.41
58821;BME280;70670;52.476;13.334;2024-01-15T04:00:03;98487.50;;;-0.42;95.75
58821;BME280;70670;52.476;13.334;2024-01-15T04:02:29;98514.66;;;-0.22;94.53
58821;BME280;70670;52.476;13.334;2024-01-15T04:04:54;98554.00;;;-0.02;95.54
58821;BME280;70670;52.476;13.334;2024-01-15T04:07:20;98565.22;;;0.02;94.93
58821;BME280;70670;52.476;13.334;2024-01-15T04:09:46;98537.66;;;-0.09;94.22
58821;BME280;70670;52.476;13.334;2024-01-15T04:12:11;98541.25;;;0.08;94.10
58821;BME280;70670;52.476;13.334;2024-01-15T04:14:37;98544.75;;;0.08;94.62
58821;BME280;70670;52.476;13.334;2024-01-15T04:17:02;98533.66;;;0.02;94.74
58821;BME280;70670;52.476;13.334;2024-01-15T04:19:28;98537.16;;;0.02;95.31
58821;BME280;70670;52.476;13.334;2024-01-15T04:21:54;98538.72;;;0.06;93.33
58821;BME280;70670;52.476;13.334;2024-01-15T04:24:19;98481.41;;;-0.23;92.66
58821;BME280;70670;52.476;13.334;2024-01-15T04:26:45;98509.38;;;-0.04;94.75
58821;BME280;70670;52.476;13.334;2024-01-15T04:29:11;98542.66;;;0.15;93.18
58821;BME280;70670;52.476;13.334;2024-01-15T04:31:37;98536.78;;;0.10;94.23
58821;BME280;70670;52.476;13.334;2024-01-15T04:34:03;98540.03;;;0.15;92.20
58821;BME280;70670;52.476;13.334;2024-01-15T04:36:28;98511.66;;;-0.15;92.38
58821;BME280;70670;52.476;13.334;2024-01-15T04:38:54;98548.59;;;0.20;91.74
58821;BME280;70670;52.476;13.334;2024-01-15T04:41:19;98525.81;;;0.19;91.37
58821;BME280;70670;52.476;13.334;2024-01-15T04:43:45;98560.00;;;0.19;91.31
58821;BME280;70670;52.476;13.334;2024-01-15T04:46:11;98519.00;;;0.15;91.81
58821;BME280;70670;52.476;13.334;2024-01-15T04:48:37;98519.66;;;0.20;91.51
58821;BME280;70670;52.476;13.334;2024-01-15T04:51:06;98444.25;;;-0.16;90.76
58821;BME280;70670;52.476;13.334;2024-01-15T04:53:35;98514.44;;;0.18;90.92
58821;BME280;70670;52.476;13.334;2024-01-15T04:56:01;98517.16;;;0.17;90.25
58821;BME280;70670;52.476;13.334;2024-01-15T04:58:26;98474.53;;;-0.09;91.26
58821;BME280;70670;52.476;13.334;2024-01-15T05:00:52;98548.06;;;0.12;90.85
58821;BME280;70670;52.476;13.334;2024-01-15T05:03:18;98506.56;;;0.18;90.12
58821;BME280;70670;52.476;13.334;2024-01-15T05:05:44;98511.31;;;0.29;89.17
58821;BME280;70670;52.476;13.334;2024-01-15T05:08:10;98528.03;;;0.28;89.59
58821;BME280;70670;52.476;13.334;2024-01-15T05:10:35;98465.38;;;0.00;90.32
58821;BME280;70670;52.476;13.334;2024-01-15T05:13:01;98520.28;;;0.25;92.07
58821;BME280;70670;52.476;13.334;2024-01-15T05:15:26;98510.88;;;0.19;92.59
58821;BME280;70670;52.476;13.334;2024-01-15T05:17:52;98506.66;;;0.17;92.44
58821;BME280;70670;52.476;13.334;2024-01-15T05:20:18;98514.53;;;0.17;93.03
58821;BME280;70670;52.476;13.334;2024-01-15T05:22:43;98497.34;;;0.10;92.77
58821;BME280;70670;52.476;13.334;2024-01-15T05:25:09;98517.03;;;0.20;92.84
58821;BME280;70670;52.476;13.334;2024-01-15T05:27:34;98523.13;;;0.20;91.69
58821;BME280;70670;52.476;13.334;2024-01-15T05:30:00;98527.38;;;0.23;92.08
58821;BME280;70670;52.476;13.334;2024-01-15T05:32:26;98491.94;;;0.13;91.90
58821;BME280;70670;52.476;13.334;2024-01-15T05:34:51;98500.69;;;0.31;90.89
58821;BME280;70670;52.476;13.334;2024-01-15T05:37:17;98433.31;;;-0.08;90.42
58821;BME280;70670;52.476;13.334;2024-01-15T05:39:42;98425.06;;;-0.01;90.07
58821;BME280;70670;52.476;13.334;2024-01-15T05:42:08;98512.41;;;0.42;89.58
58821;BME280;70670;52.476;13.334;2024-01-15T05:44:34;98416.09;;;0.04;89.71
58821;BME280;70670;52.476;13.334;2024-01-15T05:46:59;98498.63;;;0.37;90.79
58821;BME280;70670;52.476;13.334;2024-01-15T05:49:26;98486.22;;;0.39;90.10
58821;BME280;70670;52.476;13.334;2024-01-15T05:51:52;98494.22;;;0.38;89.89
58821;BME280;70670;52.476;13.334;2024-01-15T05:54:18;98503.44;;;0.46;90.27
58821;BME280;70670;52.476;13.334;2024-01-15T05:56:45;98489.66;;;0.41;90.63
58821;BME280;70670;52.476;13.334;2024-01-15T05:59:10;98491.50;;;0.39;91.54
58821;BME280;70670;52.476;13.334;2024-01-15T06:01:36;98500.78;;;0.29;94.22
58821;BME280;70670;52.476;13.334;2024-01-15T06:04:02;98499.38;;;0.22;93.42
58821;BME280;70670;52.476;13.334;2024-01-15T06:06:27;98509.59;;;0.28;93.50
58821;BME280;70670;52.476;13.334;2024-01-15T06:08:53;98506.31;;;0.23;93.69
58821;BME280;70670;52.476;13.334;2024-01-15T06:11:19;98489.41;;;0.29;92.87
58821;BME280;70670;52.476;13.334;2024-01-15T06:13:44;98507.03;;;0.27;92.55
58821;BME280;70670;52.476;13.334;2024-01-15T06:16:14;98482.44;;;0.28;92.71
58821;BME280;70670;52.476;13.334;2024-01-15T06:18:40;98487.31;;;0.35;92.40
58821;BME280;70670;52.476;13.334;2024-01-15T06:21:06;98485.38;;;0.39;91.59
58821;BME280;70670;52.476;13.334;2024-01-15T06:23:31;98479.13;;;0.41;91.12
58821;BME280;70670;52.476;13.334;2024-01-15T06:25:57;98490.03;;;0.34;92.71
58821;BME280;70670;52.476;13.334;2024-01-15T06:28:22;98495.19;;;0.35;93.90
58821;BME280;70670;52.476;13.334;2024-01-15T06:30:48;98494.59;;;0.30;94.18
58821;BME280;70670;52.476;13.334;2024-01-15T06:33:14;98476.78;;;0.18;95.53
58821;BME280;70670;52.476;13.334;2024-01-15T06:35:39;98478.47;;;0.19;95.70
58821;BME280;70670;52.476;13.334;2024-01-15T06:38:05;98473.34;;;0.16;95.30
58821;BME280;70670;52.476;13.334;2024-01-15T06:40:31;98487.00;;;0.24;94.92
58821;BME280;70670;52.476;13.334;2024-01-15T06:42:56;98493.81;;;0.28;94.03
58821;BME280;70670;52.476;13.334;2024-01-15T06:45:22;98484.06;;;0.30;94.60
58821;BME280;70670;52.476;13.334;2024-01-15T06:47:47;98483.34;;;0.27;94.12
58821;BME280;70670;52.476;13.334;2024-01-15T06:50:13;98490.41;;;0.26;94.01
58821;BME280;70670;52.476;13.334;2024-01-15T06:52:39;98428.78;;;-0.05;93.29
58821;BME280;70670;52.476;13.334;2024-01-15T06:55:05;98506.44;;;0.39;92.40
58821;BME280;70670;52.476;13.334;2024-01-15T06:57:31;98498.72;;;0.36;92.73
58821;BME280;70670;52.476;13.334;2024-01-15T06:59:56;98452.00;;;0.05;93.13
58821;BME280;70670;52.476;13.334;2024-01-15T07:02:22;98453.91;;;0.20;91.08
58821;BME280;70670;52.476;13.334;2024-01-15T07:04:48;98467.34;;;0.31;90.79
58821;BME280;70670;52.476;13.334;2024-01-15T07:07:13;98500.56;;;0.51;90.51
58821;BME280;70670;52.476;13.334;2024-01-15T07:09:39;98511.97;;;0.52;90.62
58821;BME280;70670;52.476;13.334;2024-01-15T07:12:04;98507.13;;;0.42;90.72
58821;BME280;70670;52.476;13.334;2024-01-15T07:14:30;98499.72;;;0.51;89.53
58821;BME280;70670;52.476;13.334;2024-01-15T07:16:56;98474.00;;;0.38;89.54
58821;BME280;70670;52.476;13.334;2024-01-15T07:19:21;98505.69;;;0.54;89.02
58821;BME280;70670;52.476;13.334;2024-01-15T07:21:47;98535.41;;;0.56;88.37
58821;BME280;70670;52.476;13.334;2024-01-15T07:24:13;98525.41;;;0.63;88.46
58821;BME280;70670;52.476;13.334;2024-01-15T07:26:38;98469.34;;;0.26;87.59
58821;BME280;70670;52.476;13.334;2024-01-15T07:29:05;98531.63;;;0.62;88.54
58821;BME280;70670;52.476;13.334;2024-01-15T07:31:30;98535.19;;;0.61;88.35
58821;BME280;70670;52.476;13.334;2024-01-15T07:33:56;98536.13;;;0.60;87.63
58821;BME280;70670;52.476;13.334;2024-01-15T07:36:21;98539.97;;;0.70;87.15
58821;BME280;70670;52.476;13.334;2024-01-15T07:38:47;98540.78;;;0.72;87.54
58821;BME280;70670;52.476;13.334;2024-01-15T07:41:13;98551.31;;;0.72;87.44
58821;BME280;70670;52.476;13.334;2024-01-15T07:43:39;98546.88;;;0.72;87.04
58821;BME280;70670;52.476;13.334;2024-01-15T07:46:04;98531.00;;;0.57;87.87
58821;BME280;70670;52.476;13.334;2024-01-15T07:48:30;98533.16;;;0.66;87.36
58821;BME280;70670;52.476;13.334;2024-01-15T07:50:56;98525.41;;;0.63;86.51
58821;BME280;70670;52.476;13.334;2024-01-15T07:53:21;98508.44;;;0.34;87.27
58821;BME280;70670;52.476;13.334;2024-01-15T07:55:47;98544.78;;;0.62;87.66
58821;BME280;70670;52.476;13.334;2024-01-15T07:58:13;98555.03;;;0.68;87.79
58821;BME280;70670;52.476;13.334;2024-01-15T08:00:39;98565.22;;;0.74;87.52
58821;BME280;70670;52.476;13.334;2024-01-15T08:03:05;98566.06;;;0.74;87.18
58821;BME280;70670;52.476;13.334;2024-01-15T08:05:31;98556.72;;;0.69;87.77
58821;BME280;70670;52.476;13.334;2024-01-15T08:07:57;98564.38;;;0.73;87.26
58821;BME280;70670;52.476;13.334;2024-01-15T08:10:23;98488.94;;;0.38;87.21
58821;BME280;70670;52.476;13.334;2024-01-15T08:12:49;98451.19;;;0.21;87.40
58821;BME280;70670;52.476;13.334;2024-01-15T08:15:14;98504.50;;;0.42;86.95
58821;BME280;70670;52.476;13.334;2024-01-15T08:17:40;98564.53;;;0.70;87.47
58821;BME280;70670;52.476;13.334;2024-01-15T08:20:06;98567.84;;;0.74;86.89
58821;BME280;70670;52.476;13.334;2024-01-15T08:22:31;98567.84;;;0.74;87.61
58821;BME280;70670;52.476;13.334;2024-01-15T08:24:57;98572.19;;;0.75;87.67
58821;BME280;70670;52.476;13.334;2024-01-15T08:27:22;98572.03;;;0.78;87.75
58821;BME280;70670;52.476;13.334;2024-01-15T08:29:48;98550.84;;;0.64;87.92
58821;BME280;70670;52.476;13.334;2024-01-15T08:32:14;98550.28;;;0.74;87.68
58821;BME280;70670;52.476;13.334;2024-01-15T08:34:41;98513.81;;;0.49;86.55
58821;BME280;70670;52.476;13.334;2024-01-15T08:37:07;98516.91;;;0.40;87.34
58821;BME280;70670;52.476;13.334;2024-01-15T08:39:33;98550.22;;;0.76;87.38
58821;BME280;70670;52.476;13.334;2024-01-15T08:41:59;98546.75;;;0.76;86.76
58821;BME280;70670;52.476;13.334;2024-01-15T08:44:24;98589.38;;;0.82;87.03
58821;BME280;70670;52.476;13.334;2024-01-15T08:46:50;98577.03;;;0.84;86.36
58821;BME280;70670;52.476;13.334;2024-01-15T08:49:16;98577.03;;;0.84;86.13
58821;BME280;70670;52.476;13.334;2024-01-15T08:51:41;98557.19;;;0.77;86.08
58821;BME280;70670;52.476;13.334;2024-01-15T08:54:07;98508.06;;;0.41;86.34
58821;BME280;70670;52.476;13.334;2024-01-15T08:56:33;98583.13;;;0.85;86.49
58821;BME280;70670;52.476;13.334;2024-01-15T08:58:59;98584.91;;;0.84;86.68
58821;BME280;70670;52.476;13.334;2024-01-15T09:01:25;98582.56;;;0.78;86.53
58821;BME280;70670;52.476;13.334;2024-01-15T09:03:51;98576.47;;;0.78;86.77
58821;BME280;70670;52.476;13.334;2024-01-15T09:06:16;98590.09;;;0.86;86.96
58821;BME280;70670;52.476;13.334;2024-01-15T09:08:42;98564.47;;;0.72;86.98
58821;BME280;70670;52.476;13.334;2024-01-15T09:11:07;98582.28;;;0.84;87.53
58821;BME280;70670;52.476;13.334;2024-01-15T09:13:33;98586.28;;;0.74;87.57
58821;BME280;70670;52.476;13.334;2024-01-15T09:15:59;98572.50;;;0.69;88.14
58821;BME280;70670;52.476;13.334;2024-01-15T09:18:25;98607.75;;;0.84;87.73
58821;BME280;70670;52.476;13.334;2024-01-15T09:20:51;98545.16;;;0.54;88.13
58821;BME280;70670;52.476;13.334;2024-01-15T09:23:17;98589.72;;;0.76;88.30
58821;BME280;70670;52.476;13.334;2024-01-15T09:25:42;98568.59;;;0.59;88.24
58821;BME280;70670;52.476;13.334;2024-01-15T09:28:08;98546.47;;;0.45;87.36
58821;BME280;70670;52.476;13.334;2024-01-15T09:30:34;98571.66;;;0.68;87.64
58821;BME280;70670;52.476;13.334;2024-01-15T09:33:01;98618.81;;;0.90;87.98
58821;BME280;70670;52.476;13.334;2024-01-15T09:35:26;98610.16;;;0.88;88.21
58821;BME280;70670;52.476;13.334;2024-01-15T09:37:53;98612.81;;;0.88;87.50
58821;BME280;70670;52.476;13.334;2024-01-15T09:40:20;98619.00;;;0.87;87.44
58821;BME280;70670;52.476;13.334;2024-01-15T09:42:47;98612.31;;;0.80;88.03
58821;BME280;70670;52.476;13.334;2024-01-15T09:45:12;98612.94;;;0.85;88.15
58821;BME280;70670;52.476;13.334;2024-01-15T09:47:40;98602.09;;;0.74;88.37
58821;BME280;70670;52.476;13.334;2024-01-15T09:50:06;98608.53;;;0.86;88.13
58821;BME280;70670;52.476;13.334;2024-01-15T09:52:34;98615.28;;;0.91;88.23
58821;BME280;70670;52.476;13.334;2024-01-15T09:55:01;98605.28;;;0.98;88.16
58821;BME280;70670;52.476;13.334;2024-01-15T09:57:28;98606.13;;;0.98;87.83
58821;BME280;70670;52.476;13.334;2024-01-15T09:59:54;98609.69;;;0.97;88.28
58821;BME280;70670;52.476;13.334;2024-01-15T10:02:21;98549.44;;;0.74;87.09
58821;BME280;70670;52.476;13.334;2024-01-15T10:04:47;98602.25;;;1.06;87.81
58821;BME280;70670;52.476;13.334;2024-01-15T10:07:16;98596.38;;;1.01;87.35
58821;BME280;70670;52.476;13.334;2024-01-15T10:09:44;98599.16;;;0.97;86.78
58821;BME280;70670;52.476;13.334;2024-01-15T10:12:11;98550.22;;;0.76;87.72
58821;BME280;70670;52.476;13.334;2024-01-15T10:14:37;98528.03;;;0.63;87.84
58821;BME280;70670;52.476;13.334;2024-01-15T10:17:12;98569.03;;;0.86;87.08
58821;BME280;70670;52.476;13.334;2024-01-15T10:19:38;98589.47;;;0.98;87.41
58821;BME280;70670;52.476;13.334;2024-01-15T10:22:04;98568.50;;;0.96;87.53
58821;BME280;70670;52.476;13.334;2024-01-15T10:24:29;98571.28;;;0.93;87.39
58821;BME280;70670;52.476;13.334;2024-01-15T10:27:05;98579.41;;;1.06;87.27
58821;BME280;70670;52.476;13.334;2024-01-15T10:29:31;98574.13;;;1.06;87.23
58821;BME280;70670;52.476;13.334;2024-01-15T10:31:57;98598.50;;;1.11;86.79
58821;BME280;70670;52.476;13.334;2024-01-15T10:34:22;98547.41;;;0.79;87.27
58821;BME280;70670;52.476;13.334;2024-01-15T10:36:49;98594.81;;;1.14;86.64
58821;BME280;70670;52.476;13.334;2024-01-15T10:39:21;98580.09;;;1.10;86.66
58821;BME280;70670;52.476;13.334;2024-01-15T10:41:47;98578.03;;;1.16;86.71
58821;BME280;70670;52.476;13.334;2024-01-15T10:44:12;98577.31;;;1.13;86.12
58821;BME280;70670;52.476;13.334;2024-01-15T10:46:38;98573.75;;;1.14;86.13
58821;BME280;70670;52.476;13.334;2024-01-15T10:49:04;98513.97;;;0.81;86.00
58821;BME280;70670;52.476;13.334;2024-01-15T10:51:30;98568.25;;;1.18;85.77
58821;BME280;70670;52.476;13.334;2024-01-15T10:53:56;98568.19;;;1.20;85.92
58821;BME280;70670;52.476;13.334;2024-01-15T10:56:22;98566.94;;;1.27;85.55
58821;BME280;70670;52.476;13.334;2024-01-15T10:58:50;98575.34;;;1.34;84.96
58821;BME280;70670;52.476;13.334;2024-01-15T11:01:16;98514.59;;;1.04;84.55
58821;BME280;70670;52.476;13.334;2024-01-15T11:03:42;98573.81;;;1.30;84.84
58821;BME280;70670;52.476;13.334;2024-01-15T11:06:18;98566.28;;;1.39;84.14
58821;BME280;70670;52.476;13.334;2024-01-15T11:08:50;98538.25;;;1.21;83.90
58821;BME280;70670;52.476;13.334;2024-01-15T11:11:16;98581.47;;;1.52;83.57
58821;BME280;70670;52.476;13.334;2024-01-15T11:13:43;98590.56;;;1.62;84.15
58821;BME280;70670;52.476;13.334;2024-01-15T11:16:11;98585.41;;;1.60;83.63
58821;BME280;70670;52.476;13.334;2024-01-15T11:18:41;98569.44;;;1.46;84.39
58821;BME280;70670;52.476;13.334;2024-01-15T11:23:47;98599.53;;;1.42;85.36
58821;BME280;70670;52.476;13.334;2024-01-15T11:26:36;98582.25;;;1.36;85.79
58821;BME280;70670;52.476;13.334;2024-01-15T11:29:10;98559.81;;;1.12;86.06
58821;BME280;70670;52.476;13.334;2024-01-15T11:31:57;98591.94;;;1.18;87.33
58821;BME280;70670;52.476;13.334;2024-01-15T11:37:19;98599.94;;;1.17;88.55
58821;BME280;70670;52.476;13.334;2024-01-15T11:39:45;98601.19;;;1.10;89.04
58821;BME280;70670;52.476;13.334;2024-01-15T11:42:12;98602.13;;;1.09;89.44
58821;BME280;70670;52.476;13.334;2024-01-15T11:44:38;98598.16;;;1.00;89.79
58821;BME280;70670;52.476;13.334;2024-01-15T11:47:09;98566.47;;;0.84;90.27
58821;BME280;70670;52.476;13.334;2024-01-15T11:52:11;98604.91;;;0.88;90.69
58821;BME280;70670;52.476;13.334;2024-01-15T11:54:42;98592.44;;;0.92;90.79
58821;BME280;70670;52.476;13.334;2024-01-15T11:57:21;98545.09;;;0.56;91.24
58821;BME280;70670;52.476;13.334;2024-01-15T11:59:50;98602.50;;;0.84;90.93
58821;BME280;70670;52.476;13.334;2024-01-15T12:02:16;98545.38;;;0.49;91.87
58821;BME280;70670;52.476;13.334;2024-01-15T12:04:42;98594.03;;;0.77;91.82
58821;BME280;70670;52.476;13.334;2024-01-15T12:07:08;98606.28;;;0.78;91.29
58821;BME280;70670;52.476;13.334;2024-01-15T12:09:33;98578.75;;;0.66;91.29
58821;BME280;70670;52.476;13.334;2024-01-15T12:12:06;98609.75;;;0.79;92.08
58821;BME280;70670;52.476;13.334;2024-01-15T12:14:32;98614.03;;;0.81;91.67
58821;BME280;70670;52.476;13.334;2024-01-15T12:17:00;98527.78;;;0.33;91.66
58821;BME280;70670;52.476;13.334;2024-01-15T12:19:25;98611.69;;;0.75;91.22
58821;BME280;70670;52.476;13.334;2024-01-15T12:21:51;98560.78;;;0.40;91.18
58821;BME280;70670;52.476;13.334;2024-01-15T12:24:17;98609.13;;;0.73;92.18
58821;BME280;70670;52.476;13.334;2024-01-15T12:26:44;98601.47;;;0.69;91.33
58821;BME280;70670;52.476;13.334;2024-01-15T12:29:10;98595.41;;;0.67;91.25
58821;BME280;70670;52.476;13.334;2024-01-15T12:31:36;98611.84;;;0.72;91.37
58821;BME280;70670;52.476;13.334;2024-01-15T12:34:02;98608.06;;;0.78;91.91
58821;BME280;70670;52.476;13.334;2024-01-15T12:36:30;98616.28;;;0.71;91.03
58821;BME280;70670;52.476;13.334;2024-01-15T12:38:59;98611.91;;;0.70;90.67
58821;BME280;70670;52.476;13.334;2024-01-15T12:41:25;98608.28;;;0.73;91.04
58821;BME280;70670;52.476;13.334;2024-01-15T12:43:51;98603.75;;;0.58;92.43
58821;BME280;70670;52.476;13.334;2024-01-15T12:46:16;98631.38;;;0.49;94.72
58821;BME280;70670;52.476;13.334;2024-01-15T12:48:42;98617.78;;;0.39;96.72
58821;BME280;70670;52.476;13.334;2024-01-15T12:51:08;98630.31;;;0.34;96.90
58821;BME280;70670;52.476;13.334;2024-01-15T12:53:33;98615.13;;;0.22;96.96
58821;BME280;70670;52.476;13.334;2024-01-15T12:56:00;98631.31;;;0.32;97.75
58821;BME280;70670;52.476;13.334;2024-01-15T12:58:25;98636.56;;;0.32;98.44